Time;durP1;ratioP1;P1;durP2;ratioP2;P2;SDS_P1;SDS_P2;PMS_P1;PMS_P2;Temp;Humidity;BMP_temperature;BMP_pressure;BME280_temperature;BME280_humidity;BME280_pressure;Samples;Min_cycle;Max_cycle;Signal;HPM_P1;HPM_P2
2023/04/10 00:02:05;;;;;;;0.20;0.20;;;;;;;;;;5014408;28;20385;-78
2023/04/10 00:04:30;;;;;;;0.10;0.10;;;;;;;;;;5014759;28;20128;-78
2023/04/10 00:06:56;;;;;;;0.63;0.63;;;;;;;;;;4997210;28;20037;-79
2023/04/10 00:09:21;;;;;;;0.20;0.20;;;;;;;;;;5014745;28;20026;-78
2023/04/10 00:11:46;;;;;;;0.10;0.10;;;;;;;;;;5013663;28;20395;-78
2023/04/10 00:14:12;;;;;;;0.10;0.10;;;;;;;;;;5014806;28;20112;-79
2023/04/10 00:16:37;;;;;;;0.20;0.20;;;;;;;;;;5014663;28;20421;-78
2023/04/10 00:19:03;;;;;;;0.30;0.30;;;;;;;;;;5014606;28;20045;-78
2023/04/10 00:21:28;;;;;;;0.10;0.10;;;;;;;;;;5014352;28;20038;-78
2023/04/10 00:23:53;;;;;;;2.38;1.40;;;;;;;;;;5014522;28;20069;-78
2023/04/10 00:26:20;;;;;;;0.73;0.73;;;;;;;;;;5014432;28;20034;-79
2023/04/10 00:28:45;;;;;;;0.10;0.10;;;;;;;;;;5014659;28;20033;-78
2023/04/10 00:31:10;;;;;;;0.20;0.20;;;;;;;;;;4996791;28;20505;-78
2023/04/10 00:33:36;;;;;;;0.10;0.10;;;;;;;;;;4978378;28;20061;-79
2023/04/10 00:36:01;;;;;;;0.10;0.10;;;;;;;;;;5012198;28;20033;-78
2023/04/10 00:38:26;;;;;;;0.20;0.20;;;;;;;;;;5011970;28;20030;-81
2023/04/10 00:40:52;;;;;;;0.10;0.10;;;;;;;;;;5010776;28;20091;-79
2023/04/10 00:43:19;;;;;;;0.10;0.10;;;;;;;;;;5012023;28;20042;-79
2023/04/10 00:45:44;;;;;;;0.20;0.20;;;;;;;;;;4994371;28;20122;-78
2023/04/10 00:48:11;;;;;;;0.63;0.63;;;;;;;;;;5012082;28;20448;-78
2023/04/10 00:50:36;;;;;;;2.85;0.30;;;;;;;;;;5012761;28;20041;-78
2023/04/10 00:53:02;;;;;;;0.10;0.10;;;;;;;;;;4996270;28;20036;-79
2023/04/10 00:55:27;;;;;;;0.77;0.77;;;;;;;;;;5014208;28;20160;-78
2023/04/10 00:57:54;;;;;;;0.22;0.22;;;;;;;;;;5012698;28;20029;-78
2023/04/10 01:00:20;;;;;;;0.20;0.20;;;;;;;;;;5012874;28;20026;-77
2023/04/10 01:02:46;;;;;;;0.45;0.45;;;;;;;;;;5012668;28;20405;-78
2023/04/10 01:05:12;;;;;;;0.20;0.20;;;;;;;;;;5012660;28;20038;-78
2023/04/10 01:07:46;;;;;;;0.10;0.10;;;;;;;;;;4996132;28;20061;-77
2023/04/10 01:10:37;;;;;;;0.10;0.10;;;;;;;;;;5013994;28;20026;-78
2023/04/10 01:13:15;;;;;;;3.83;0.85;;;;;;;;;;5009002;28;20136;-77
2023/04/10 01:15:50;;;;;;;0.75;0.75;;;;;;;;;;5012362;28;20030;-77
2023/04/10 01:18:25;;;;;;;0.10;0.10;;;;;;;;;;5012365;28;20042;-78
2023/04/10 01:20:51;;;;;;;0.10;0.10;;;;;;;;;;4996284;28;20053;-78
2023/04/10 01:23:35;;;;;;;0.10;0.10;;;;;;;;;;4996125;28;20042;-78
2023/04/10 01:26:11;;;;;;;0.10;0.10;;;;;;;;;;5013656;28;20087;-77
2023/04/10 01:28:48;;;;;;;0.50;0.50;;;;;;;;;;5013502;28;20809;-77
2023/04/10 01:31:16;;;;;;;0.10;0.10;;;;;;;;;;5013551;28;20034;-78
2023/04/10 01:33:44;;;;;;;0.10;0.10;;;;;;;;;;5012186;28;20508;-77
2023/04/10 01:36:11;;;;;;;0.10;0.10;;;;;;;;;;5012289;28;20084;-77
2023/04/10 01:38:38;;;;;;;0.10;0.10;;;;;;;;;;5013503;28;20392;-77
2023/04/10 01:41:05;;;;;;;0.10;0.10;;;;;;;;;;4995777;28;20060;-77
2023/04/10 01:43:31;;;;;;;0.10;0.10;;;;;;;;;;5013566;28;20041;-77
2023/04/10 01:45:57;;;;;;;0.20;0.20;;;;;;;;;;5013637;28;20029;-77
2023/04/10 01:48:23;;;;;;;0.17;0.17;;;;;;;;;;4996050;28;20045;-78
2023/04/10 01:50:49;;;;;;;0.20;0.20;;;;;;;;;;5014112;28;20084;-77
2023/04/10 01:53:15;;;;;;;0.20;0.20;;;;;;;;;;4995847;28;20046;-77
2023/04/10 01:55:41;;;;;;;0.10;0.10;;;;;;;;;;4995508;28;20065;-77
2023/04/10 01:58:08;;;;;;;0.10;0.10;;;;;;;;;;4995610;28;20088;-77
2023/04/10 02:00:41;;;;;;;0.10;0.10;;;;;;;;;;4995031;28;20026;-77
2023/04/10 02:03:07;;;;;;;0.17;0.17;;;;;;;;;;4995440;28;20125;-78
2023/04/10 02:05:53;;;;;;;0.10;0.10;;;;;;;;;;5011586;28;20121;-78
2023/04/10 02:08:22;;;;;;;0.20;0.20;;;;;;;;;;4978315;28;20132;-77
2023/04/10 02:10:51;;;;;;;0.10;0.10;;;;;;;;;;5015589;28;20026;-77
2023/04/10 02:13:19;;;;;;;0.10;0.10;;;;;;;;;;4998378;28;20563;-78
2023/04/10 02:15:46;;;;;;;0.20;0.20;;;;;;;;;;4998427;28;20285;-78
2023/04/10 02:18:14;;;;;;;0.20;0.20;;;;;;;;;;5016216;28;20022;-79
2023/04/10 02:20:40;;;;;;;0.10;0.10;;;;;;;;;;5015492;28;20498;-78
2023/04/10 02:23:05;;;;;;;0.10;0.10;;;;;;;;;;5008240;28;20026;-77
2023/04/10 02:25:31;;;;;;;0.10;0.10;;;;;;;;;;4997164;28;20042;-77
2023/04/10 02:27:57;;;;;;;0.10;0.10;;;;;;;;;;4979741;28;20462;-77
2023/04/10 02:30:23;;;;;;;0.10;0.10;;;;;;;;;;4997205;28;20107;-77
2023/04/10 02:32:49;;;;;;;0.20;0.20;;;;;;;;;;4979544;28;20088;-77
2023/04/10 02:35:16;;;;;;;0.20;0.20;;;;;;;;;;4979397;28;20087;-78
2023/04/10 02:37:42;;;;;;;0.20;0.20;;;;;;;;;;4996916;28;20121;-77
2023/04/10 02:40:08;;;;;;;0.43;0.43;;;;;;;;;;4979596;28;20034;-77
2023/04/10 02:43:00;;;;;;;0.20;0.20;;;;;;;;;;4993530;28;20042;-77
2023/04/10 02:45:25;;;;;;;0.17;0.17;;;;;;;;;;4979272;28;20390;-77
2023/04/10 02:47:51;;;;;;;0.20;0.20;;;;;;;;;;4996557;28;20034;-77
2023/04/10 02:50:17;;;;;;;0.20;0.20;;;;;;;;;;4979116;28;20069;-77
2023/04/10 02:52:44;;;;;;;0.10;0.10;;;;;;;;;;4979339;28;20034;-77
2023/04/10 02:55:10;;;;;;;0.13;0.13;;;;;;;;;;4996664;28;20117;-77
2023/04/10 02:57:37;;;;;;;0.25;0.25;;;;;;;;;;4979168;28;20453;-76
2023/04/10 03:00:04;;;;;;;0.10;0.10;;;;;;;;;;4979136;28;20081;-77
2023/04/10 03:02:45;;;;;;;0.20;0.20;;;;;;;;;;4968516;28;20037;-77
2023/04/10 03:05:15;;;;;;;2.38;2.28;;;;;;;;;;4994429;28;20123;-77
2023/04/10 03:07:41;;;;;;;0.10;0.10;;;;;;;;;;5012593;28;20049;-77
2023/04/10 03:10:07;;;;;;;0.20;0.20;;;;;;;;;;4994497;28;20141;-78
2023/04/10 03:12:33;;;;;;;0.10;0.10;;;;;;;;;;4994493;28;20465;-80
2023/04/10 03:14:59;;;;;;;0.10;0.10;;;;;;;;;;5011981;28;20042;-77
2023/04/10 03:17:24;;;;;;;0.20;0.20;;;;;;;;;;5012258;28;20535;-77
2023/04/10 03:19:50;;;;;;;0.10;0.10;;;;;;;;;;5011020;28;20033;-77
2023/04/10 03:22:16;;;;;;;0.13;0.13;;;;;;;;;;4994519;28;20073;-77
2023/04/10 03:24:41;;;;;;;0.13;0.13;;;;;;;;;;4994755;28;20030;-79
2023/04/10 03:27:06;;;;;;;0.20;0.20;;;;;;;;;;4994596;28;20042;-77
2023/04/10 03:29:32;;;;;;;0.10;0.10;;;;;;;;;;4994021;28;20038;-77
2023/04/10 03:31:58;;;;;;;0.20;0.20;;;;;;;;;;5011828;28;20029;-79
2023/04/10 03:34:24;;;;;;;0.20;0.20;;;;;;;;;;4994387;28;20548;-77
2023/04/10 03:36:50;;;;;;;0.20;0.20;;;;;;;;;;5011954;28;20041;-77
2023/04/10 03:39:15;;;;;;;0.10;0.10;;;;;;;;;;5011477;28;20172;-76
2023/04/10 03:41:41;;;;;;;0.13;0.13;;;;;;;;;;4994040;28;20488;-77
2023/04/10 03:44:06;;;;;;;0.10;0.10;;;;;;;;;;4993897;28;20038;-77
2023/04/10 03:46:32;;;;;;;0.15;0.15;;;;;;;;;;4994033;28;20091;-77
2023/04/10 03:48:59;;;;;;;0.15;0.15;;;;;;;;;;4977853;28;20040;-77
2023/04/10 03:51:26;;;;;;;0.10;0.10;;;;;;;;;;4993954;28;20030;-78
2023/04/10 03:53:51;;;;;;;0.20;0.20;;;;;;;;;;5011895;28;20394;-77
2023/04/10 03:56:17;;;;;;;0.20;0.20;;;;;;;;;;4993708;28;20041;-77
2023/04/10 03:58:43;;;;;;;0.20;0.20;;;;;;;;;;4993914;28;20038;-77
2023/04/10 04:01:10;;;;;;;0.20;0.20;;;;;;;;;;4992806;28;20030;-77
2023/04/10 04:03:52;;;;;;;0.10;0.10;;;;;;;;;;4993847;28;20048;-80
2023/04/10 04:06:36;;;;;;;0.10;0.10;;;;;;;;;;5009544;28;20049;-78
2023/04/10 04:09:24;;;;;;;0.20;0.20;;;;;;;;;;4991288;28;20119;-81
2023/04/10 04:12:09;;;;;;;0.10;0.10;;;;;;;;;;4991886;28;20441;-77
2023/04/10 04:14:53;;;;;;;0.10;0.10;;;;;;;;;;4994968;28;20491;-78
2023/04/10 04:17:42;;;;;;;1.17;1.17;;;;;;;;;;4998739;28;20108;-78
2023/04/10 04:20:07;;;;;;;0.17;0.17;;;;;;;;;;5009733;28;20046;-77
2023/04/10 04:22:56;;;;;;;0.17;0.17;;;;;;;;;;4999733;28;20046;-76
2023/04/10 04:25:36;;;;;;;0.20;0.20;;;;;;;;;;5010637;28;20050;-77
2023/04/10 04:28:19;;;;;;;0.10;0.10;;;;;;;;;;4992853;28;20057;-77
2023/04/10 04:31:03;;;;;;;0.20;0.20;;;;;;;;;;4992435;28;20461;-77
2023/04/10 04:33:54;;;;;;;0.20;0.20;;;;;;;;;;4987150;28;20046;-76
2023/04/10 04:36:43;;;;;;;0.13;0.13;;;;;;;;;;4999190;28;20050;-78
2023/04/10 04:39:44;;;;;;;0.10;0.10;;;;;;;;;;4930574;29;20047;-76
2023/04/10 04:42:30;;;;;;;0.20;0.20;;;;;;;;;;4986677;28;20053;-80
2023/04/10 04:45:20;;;;;;;0.20;0.20;;;;;;;;;;5009258;28;20385;-76
2023/04/10 04:48:07;;;;;;;0.10;0.10;;;;;;;;;;4992627;28;20056;-76
2023/04/10 04:50:51;;;;;;;0.10;0.10;;;;;;;;;;5010514;28;20099;-77
2023/04/10 04:53:37;;;;;;;0.20;0.20;;;;;;;;;;5009418;28;20049;-76
2023/04/10 04:56:08;;;;;;;0.10;0.10;;;;;;;;;;4992369;28;20033;-77
2023/04/10 04:58:46;;;;;;;0.10;0.10;;;;;;;;;;4992806;28;20034;-76
2023/04/10 05:01:24;;;;;;;0.10;0.10;;;;;;;;;;4992102;28;20030;-81
2023/04/10 05:04:07;;;;;;;0.10;0.10;;;;;;;;;;5010165;28;20037;-77
2023/04/10 05:06:53;;;;;;;0.10;0.10;;;;;;;;;;4992264;28;20042;-77
2023/04/10 05:09:41;;;;;;;0.10;0.10;;;;;;;;;;4996815;28;20069;-77
2023/04/10 05:12:22;;;;;;;0.40;0.40;;;;;;;;;;4992101;28;20044;-77
2023/04/10 05:14:59;;;;;;;0.15;0.15;;;;;;;;;;4992097;28;20060;-77
2023/04/10 05:17:34;;;;;;;0.20;0.20;;;;;;;;;;4992368;28;20132;-76
2023/04/10 05:20:20;;;;;;;0.20;0.20;;;;;;;;;;5009981;28;20052;-76
2023/04/10 05:23:09;;;;;;;0.15;0.15;;;;;;;;;;4998896;28;20061;-77
2023/04/10 05:25:53;;;;;;;0.10;0.10;;;;;;;;;;5010171;28;20034;-76
2023/04/10 05:28:49;;;;;;;0.15;0.15;;;;;;;;;;4991988;28;20549;-77
2023/04/10 05:31:30;;;;;;;0.52;0.52;;;;;;;;;;4992139;28;20490;-76
2023/04/10 05:34:15;;;;;;;0.20;0.20;;;;;;;;;;4992160;28;20056;-77
2023/04/10 05:37:01;;;;;;;6.90;5.22;;;;;;;;;;5008661;28;20087;-77
2023/04/10 05:39:40;;;;;;;0.10;0.10;;;;;;;;;;4992315;28;20041;-78
2023/04/10 05:42:24;;;;;;;0.15;0.15;;;;;;;;;;5009611;28;20057;-77
2023/04/10 05:45:08;;;;;;;0.30;0.30;;;;;;;;;;4998765;28;20056;-77
2023/04/10 05:47:47;;;;;;;1.43;1.43;;;;;;;;;;4995965;28;20432;-76
2023/04/10 05:50:30;;;;;;;0.10;0.10;;;;;;;;;;5013931;28;20041;-77
2023/04/10 05:53:31;;;;;;;0.15;0.15;;;;;;;;;;4995992;28;20128;-77
2023/04/10 05:56:35;;;;;;;0.20;0.20;;;;;;;;;;4952856;29;20086;-77
2023/04/10 05:59:19;;;;;;;0.10;0.10;;;;;;;;;;4953264;29;20054;-77
2023/04/10 06:02:20;;;;;;;0.10;0.10;;;;;;;;;;4942426;28;20130;-80
2023/04/10 06:04:46;;;;;;;0.20;0.20;;;;;;;;;;4983780;28;20046;-78
2023/04/10 06:07:12;;;;;;;0.30;0.30;;;;;;;;;;4995467;28;20038;-77
2023/04/10 06:09:39;;;;;;;0.13;0.13;;;;;;;;;;4995907;28;20026;-76
2023/04/10 06:12:06;;;;;;;0.15;0.15;;;;;;;;;;4995644;28;20034;-78
2023/04/10 06:14:31;;;;;;;0.20;0.20;;;;;;;;;;4995731;28;20037;-78
2023/04/10 06:16:57;;;;;;;0.20;0.20;;;;;;;;;;4995494;28;20485;-78
2023/04/10 06:19:24;;;;;;;0.20;0.20;;;;;;;;;;5012763;28;20041;-77
2023/04/10 06:21:49;;;;;;;0.10;0.10;;;;;;;;;;4979593;28;20037;-77
2023/04/10 06:24:15;;;;;;;0.30;0.30;;;;;;;;;;5013177;28;20112;-77
2023/04/10 06:26:40;;;;;;;0.28;0.28;;;;;;;;;;5013106;28;20137;-78
2023/04/10 06:29:06;;;;;;;0.20;0.20;;;;;;;;;;4995063;28;20405;-77
2023/04/10 06:31:32;;;;;;;0.20;0.20;;;;;;;;;;4995335;28;20128;-77
2023/04/10 06:33:58;;;;;;;0.32;0.32;;;;;;;;;;4994963;28;20628;-77
2023/04/10 06:36:25;;;;;;;0.20;0.20;;;;;;;;;;4995317;28;20048;-77
2023/04/10 06:38:58;;;;;;;0.20;0.20;;;;;;;;;;4995107;28;20125;-77
2023/04/10 06:41:24;;;;;;;0.10;0.10;;;;;;;;;;4995188;28;20175;-77
2023/04/10 06:43:53;;;;;;;0.20;0.20;;;;;;;;;;5012606;28;20135;-76
2023/04/10 06:46:18;;;;;;;0.20;0.20;;;;;;;;;;5012370;28;20073;-77
2023/04/10 06:48:44;;;;;;;0.20;0.20;;;;;;;;;;5012685;28;20029;-77
2023/04/10 06:51:09;;;;;;;0.20;0.20;;;;;;;;;;5012812;28;20040;-76
2023/04/10 06:53:34;;;;;;;0.10;0.10;;;;;;;;;;5012655;28;20412;-77
2023/04/10 06:56:00;;;;;;;0.10;0.10;;;;;;;;;;4994694;28;20121;-77
2023/04/10 06:58:26;;;;;;;0.20;0.20;;;;;;;;;;4994936;28;20026;-79
2023/04/10 07:00:51;;;;;;;0.20;0.20;;;;;;;;;;5013054;28;20065;-77
2023/04/10 07:03:16;;;;;;;0.10;0.10;;;;;;;;;;5011973;28;20381;-77
2023/04/10 07:05:42;;;;;;;0.20;0.20;;;;;;;;;;5012617;28;20038;-80
2023/04/10 07:08:07;;;;;;;0.10;0.10;;;;;;;;;;5012490;28;20040;-77
2023/04/10 07:10:33;;;;;;;0.17;0.17;;;;;;;;;;5012191;28;20025;-77
2023/04/10 07:12:58;;;;;;;0.17;0.17;;;;;;;;;;5012314;28;20106;-77
2023/04/10 07:15:24;;;;;;;0.10;0.10;;;;;;;;;;5011831;28;20112;-76
2023/04/10 07:17:50;;;;;;;0.17;0.17;;;;;;;;;;5012092;28;20117;-76
2023/04/10 07:20:15;;;;;;;0.10;0.10;;;;;;;;;;5012047;28;20561;-78
2023/04/10 07:22:41;;;;;;;0.10;0.10;;;;;;;;;;5012143;28;20100;-77
2023/04/10 07:25:07;;;;;;;0.10;0.10;;;;;;;;;;4994229;28;20105;-75
2023/04/10 07:27:32;;;;;;;0.10;0.10;;;;;;;;;;5012082;28;20042;-80
2023/04/10 07:29:57;;;;;;;0.30;0.20;;;;;;;;;;4994605;28;20052;-76
2023/04/10 07:32:23;;;;;;;0.20;0.20;;;;;;;;;;4994290;28;20033;-77
2023/04/10 07:34:49;;;;;;;0.10;0.10;;;;;;;;;;5011525;28;20030;-78
2023/04/10 07:37:14;;;;;;;0.30;0.30;;;;;;;;;;5011574;28;20517;-79
2023/04/10 07:39:40;;;;;;;0.38;0.35;;;;;;;;;;5011869;28;20053;-76
2023/04/10 07:42:05;;;;;;;0.20;0.20;;;;;;;;;;5010927;28;20046;-78
2023/04/10 07:44:31;;;;;;;0.30;0.30;;;;;;;;;;5010946;28;20440;-77
2023/04/10 07:46:57;;;;;;;0.10;0.10;;;;;;;;;;5009484;28;20458;-76
2023/04/10 07:49:28;;;;;;;0.10;0.10;;;;;;;;;;5011160;28;20030;-78
2023/04/10 07:51:54;;;;;;;0.10;0.10;;;;;;;;;;5010100;28;20080;-78
2023/04/10 07:54:20;;;;;;;0.20;0.20;;;;;;;;;;5007628;28;20394;-78
2023/04/10 07:56:45;;;;;;;0.20;0.20;;;;;;;;;;5007127;28;20038;-78
2023/04/10 07:59:11;;;;;;;1.45;0.50;;;;;;;;;;5009099;28;20030;-79
2023/04/10 08:01:36;;;;;;;0.20;0.20;;;;;;;;;;5002710;28;20057;-79
2023/04/10 08:04:02;;;;;;;0.10;0.10;;;;;;;;;;4991663;28;20490;-79
2023/04/10 08:06:27;;;;;;;0.17;0.17;;;;;;;;;;4973799;28;20023;-78
2023/04/10 08:08:53;;;;;;;0.10;0.10;;;;;;;;;;4991410;28;20030;-80
2023/04/10 08:11:26;;;;;;;0.43;0.30;;;;;;;;;;4974359;28;20034;-78
2023/04/10 08:13:56;;;;;;;0.10;0.10;;;;;;;;;;4973968;28;20030;-78
2023/04/10 08:16:26;;;;;;;0.10;0.10;;;;;;;;;;4990886;28;20034;-78
2023/04/10 08:18:52;;;;;;;0.10;0.10;;;;;;;;;;4974293;28;20045;-80
2023/04/10 08:21:18;;;;;;;0.10;0.10;;;;;;;;;;4991523;28;20040;-77
2023/04/10 08:23:45;;;;;;;0.10;0.10;;;;;;;;;;4973386;28;20385;-79
2023/04/10 08:26:11;;;;;;;0.30;0.30;;;;;;;;;;4991533;28;20997;-78
2023/04/10 08:28:37;;;;;;;0.40;0.40;;;;;;;;;;4991605;28;20034;-78
2023/04/10 08:31:02;;;;;;;0.20;0.20;;;;;;;;;;4993363;28;20041;-78
2023/04/10 08:33:28;;;;;;;0.10;0.10;;;;;;;;;;4991320;28;20113;-77
2023/04/10 08:35:53;;;;;;;0.13;0.13;;;;;;;;;;4991513;28;20510;-79
2023/04/10 08:38:20;;;;;;;0.60;0.60;;;;;;;;;;4991399;28;20440;-79
2023/04/10 08:40:45;;;;;;;0.10;0.10;;;;;;;;;;4973678;28;20092;-80
2023/04/10 08:43:11;;;;;;;0.30;0.30;;;;;;;;;;5006737;28;20413;-78
2023/04/10 08:45:38;;;;;;;0.70;0.70;;;;;;;;;;5010193;28;20033;-79
2023/04/10 08:48:04;;;;;;;0.90;0.90;;;;;;;;;;5010257;28;20056;-78
2023/04/10 08:50:32;;;;;;;0.10;0.10;;;;;;;;;;5010810;28;20589;-80
2023/04/10 08:52:59;;;;;;;0.15;0.15;;;;;;;;;;5010501;28;20050;-80
2023/04/10 08:55:24;;;;;;;0.22;0.22;;;;;;;;;;5010847;28;20049;-77
2023/04/10 08:57:51;;;;;;;0.20;0.20;;;;;;;;;;4992457;28;20807;-79
2023/04/10 09:00:16;;;;;;;0.10;0.10;;;;;;;;;;4992725;28;20033;-78
2023/04/10 09:02:42;;;;;;;0.20;0.20;;;;;;;;;;5010111;28;20034;-78
2023/04/10 09:05:09;;;;;;;0.15;0.15;;;;;;;;;;5010657;28;20025;-78
2023/04/10 09:07:35;;;;;;;0.10;0.10;;;;;;;;;;5010425;28;20148;-79
2023/04/10 09:10:00;;;;;;;0.20;0.20;;;;;;;;;;5010068;28;20589;-79
2023/04/10 09:12:26;;;;;;;0.20;0.20;;;;;;;;;;5009754;28;20511;-78
2023/04/10 09:14:52;;;;;;;0.13;0.13;;;;;;;;;;5010318;28;20033;-78
2023/04/10 09:17:17;;;;;;;0.40;0.35;;;;;;;;;;5009793;28;20030;-79
2023/04/10 09:19:44;;;;;;;0.17;0.17;;;;;;;;;;5009965;28;20026;-80
2023/04/10 09:22:09;;;;;;;0.20;0.20;;;;;;;;;;5009667;28;20038;-80
2023/04/10 09:24:38;;;;;;;0.20;0.20;;;;;;;;;;5010433;28;20076;-80
2023/04/10 09:27:07;;;;;;;0.57;0.57;;;;;;;;;;5009614;28;20038;-80
2023/04/10 09:29:43;;;;;;;0.30;0.30;;;;;;;;;;5010079;28;20501;-81
2023/04/10 09:32:09;;;;;;;0.45;0.45;;;;;;;;;;5009786;28;20486;-81
2023/04/10 09:34:50;;;;;;;0.20;0.20;;;;;;;;;;5009995;28;20034;-79
2023/04/10 09:37:17;;;;;;;0.20;0.20;;;;;;;;;;5009906;28;20034;-80
2023/04/10 09:39:43;;;;;;;0.20;0.20;;;;;;;;;;5010037;28;20030;-80
2023/04/10 09:42:10;;;;;;;0.20;0.20;;;;;;;;;;5010327;28;20050;-80
2023/04/10 09:44:36;;;;;;;0.20;0.20;;;;;;;;;;4992416;28;20053;-79
2023/04/10 09:47:18;;;;;;;0.57;0.57;;;;;;;;;;5009498;28;20123;-80
2023/04/10 09:49:45;;;;;;;0.20;0.20;;;;;;;;;;5009751;28;20030;-80
2023/04/10 09:52:37;;;;;;;0.20;0.20;;;;;;;;;;5008195;28;20037;-79
2023/04/10 09:55:08;;;;;;;0.20;0.20;;;;;;;;;;5002577;28;20050;-80
2023/04/10 09:57:34;;;;;;;0.20;0.20;;;;;;;;;;5007227;28;20141;-79
2023/04/10 10:00:07;;;;;;;0.28;0.28;;;;;;;;;;4991594;28;20470;-80
2023/04/10 10:02:35;;;;;;;0.35;0.35;;;;;;;;;;5009377;28;20054;-80
2023/04/10 10:05:03;;;;;;;0.20;0.20;;;;;;;;;;5007373;28;20474;-79
2023/04/10 10:07:29;;;;;;;0.22;0.22;;;;;;;;;;5008135;28;20323;-80
2023/04/10 10:09:54;;;;;;;0.20;0.20;;;;;;;;;;5008872;28;20174;-81
2023/04/10 10:12:26;;;;;;;0.20;0.20;;;;;;;;;;5009519;28;20030;-80
2023/04/10 10:15:17;;;;;;;0.20;0.20;;;;;;;;;;5009032;28;20037;-81
2023/04/10 10:17:45;;;;;;;0.20;0.20;;;;;;;;;;4946054;28;20056;-81
2023/04/10 10:20:12;;;;;;;0.30;0.30;;;;;;;;;;5009403;28;20038;-80
2023/04/10 10:22:38;;;;;;;0.30;0.30;;;;;;;;;;4991428;28;20030;-80
2023/04/10 10:25:03;;;;;;;0.20;0.20;;;;;;;;;;5008912;28;20026;-80
2023/04/10 10:27:35;;;;;;;0.30;0.30;;;;;;;;;;5008961;28;20496;-81
2023/04/10 10:30:02;;;;;;;0.30;0.30;;;;;;;;;;4992921;28;20116;-80
2023/04/10 10:32:28;;;;;;;0.20;0.20;;;;;;;;;;5013190;28;20045;-78
2023/04/10 10:34:53;;;;;;;0.20;0.20;;;;;;;;;;5013225;28;20037;-80
2023/04/10 10:37:20;;;;;;;0.20;0.20;;;;;;;;;;5012933;28;20083;-81
2023/04/10 10:39:45;;;;;;;0.20;0.20;;;;;;;;;;5013273;28;20496;-80
2023/04/10 10:42:31;;;;;;;0.20;0.20;;;;;;;;;;5016588;28;20038;-80
2023/04/10 10:45:09;;;;;;;0.22;0.22;;;;;;;;;;4998064;28;20050;-81
2023/04/10 10:47:39;;;;;;;0.20;0.20;;;;;;;;;;5014852;28;20026;-81
2023/04/10 10:50:04;;;;;;;0.20;0.20;;;;;;;;;;5013343;28;20045;-80
2023/04/10 10:52:42;;;;;;;0.20;0.20;;;;;;;;;;5013017;28;20025;-80
2023/04/10 10:55:38;;;;;;;0.40;0.40;;;;;;;;;;5012511;28;20512;-80
2023/04/10 10:58:07;;;;;;;0.47;0.47;;;;;;;;;;4995053;28;20040;-81
2023/04/10 11:00:51;;;;;;;0.30;0.30;;;;;;;;;;5012569;28;20804;-82
2023/04/10 11:03:16;;;;;;;0.43;0.43;;;;;;;;;;5012286;28;20038;-81
2023/04/10 11:05:48;;;;;;;0.30;0.30;;;;;;;;;;5013009;28;20022;-81
2023/04/10 11:08:13;;;;;;;0.10;0.10;;;;;;;;;;5012917;28;20586;-80
2023/04/10 11:10:57;;;;;;;0.30;0.30;;;;;;;;;;5012742;28;20061;-82
2023/04/10 11:13:23;;;;;;;0.40;0.40;;;;;;;;;;5012492;28;20129;-79
2023/04/10 11:15:50;;;;;;;0.20;0.20;;;;;;;;;;4995346;28;20120;-79
2023/04/10 11:18:15;;;;;;;0.20;0.20;;;;;;;;;;5012848;28;20033;-83
2023/04/10 11:21:00;;;;;;;0.15;0.15;;;;;;;;;;5013027;28;20474;-82
2023/04/10 11:23:26;;;;;;;0.38;0.38;;;;;;;;;;5012209;28;20120;-81
2023/04/10 11:25:52;;;;;;;0.20;0.20;;;;;;;;;;5012094;28;20563;-80
2023/04/10 11:28:30;;;;;;;0.20;0.20;;;;;;;;;;5012084;28;20041;-80
2023/04/10 11:31:12;;;;;;;0.20;0.20;;;;;;;;;;4994684;28;20123;-80
2023/04/10 11:33:37;;;;;;;0.20;0.20;;;;;;;;;;5012161;28;20164;-80
2023/04/10 11:36:03;;;;;;;0.20;0.20;;;;;;;;;;4994732;28;20120;-80
2023/04/10 11:38:28;;;;;;;0.30;0.30;;;;;;;;;;5011797;28;20042;-81
2023/04/10 11:41:02;;;;;;;0.30;0.30;;;;;;;;;;5010744;28;20054;-81
2023/04/10 11:43:28;;;;;;;0.20;0.20;;;;;;;;;;4994184;28;20057;-79
2023/04/10 11:46:00;;;;;;;0.45;0.45;;;;;;;;;;5011555;28;20535;-84
2023/04/10 11:48:27;;;;;;;0.20;0.20;;;;;;;;;;5011836;28;20026;-81
2023/04/10 11:50:52;;;;;;;0.20;0.20;;;;;;;;;;5012294;28;20053;-83
2023/04/10 11:53:18;;;;;;;0.30;0.30;;;;;;;;;;5011407;28;20033;-80
2023/04/10 11:55:45;;;;;;;0.30;0.30;;;;;;;;;;5011520;28;20041;-81
2023/04/10 11:58:20;;;;;;;0.20;0.20;;;;;;;;;;5011862;28;20022;-87
2023/04/10 12:00:54;;;;;;;0.25;0.25;;;;;;;;;;5011649;28;20433;-85
2023/04/10 12:03:29;;;;;;;0.20;0.20;;;;;;;;;;5011374;28;20034;-79
2023/04/10 12:05:55;;;;;;;0.22;0.22;;;;;;;;;;5011747;28;20038;-79
2023/04/10 12:08:28;;;;;;;0.68;0.68;;;;;;;;;;5011078;28;20036;-81
2023/04/10 12:10:55;;;;;;;0.28;0.28;;;;;;;;;;5010998;28;20386;-81
2023/04/10 12:13:24;;;;;;;0.20;0.20;;;;;;;;;;5010999;28;20033;-82
2023/04/10 12:15:50;;;;;;;;;;;;;;;;;;5011873;28;20057;-84
2023/04/10 12:18:15;;;;;;;0.37;0.37;;;;;;;;;;5011266;28;19921;-86
2023/04/10 12:20:41;;;;;;;0.43;0.43;;;;;;;;;;5010975;28;20117;-84
2023/04/10 12:23:06;;;;;;;0.20;0.20;;;;;;;;;;5010992;28;20034;-84
2023/04/10 12:25:32;;;;;;;0.20;0.20;;;;;;;;;;5010899;28;20038;-83
2023/04/10 12:27:58;;;;;;;0.30;0.30;;;;;;;;;;5010541;28;20033;-83
2023/04/10 12:30:23;;;;;;;0.25;0.25;;;;;;;;;;5010749;28;20415;-84
2023/04/10 12:32:55;;;;;;;0.20;0.20;;;;;;;;;;5011026;28;20474;-81
2023/04/10 12:35:36;;;;;;;0.20;0.20;;;;;;;;;;4992745;28;20497;-82
2023/04/10 12:38:01;;;;;;;0.20;0.20;;;;;;;;;;5010899;28;20432;-84
2023/04/10 12:40:27;;;;;;;0.40;0.40;;;;;;;;;;5010955;28;20042;-82
2023/04/10 12:42:52;;;;;;;0.20;0.20;;;;;;;;;;5010700;28;20041;-82
2023/04/10 12:45:17;;;;;;;0.20;0.20;;;;;;;;;;5010636;28;20030;-84
2023/04/10 12:47:47;;;;;;;0.20;0.20;;;;;;;;;;5010693;28;20037;-84
2023/04/10 12:50:13;;;;;;;0.30;0.30;;;;;;;;;;5010328;28;20493;-77
2023/04/10 12:52:40;;;;;;;0.30;0.30;;;;;;;;;;4992896;28;20042;-77
2023/04/10 12:55:16;;;;;;;0.20;0.20;;;;;;;;;;5013064;28;20037;-78
2023/04/10 12:57:45;;;;;;;0.20;0.20;;;;;;;;;;5012455;28;20030;-83
2023/04/10 13:00:13;;;;;;;1.17;1.17;;;;;;;;;;5014868;28;20026;-84
2023/04/10 13:02:38;;;;;;;0.20;0.20;;;;;;;;;;5012183;28;20389;-89
2023/04/10 13:05:05;;;;;;;0.20;0.20;;;;;;;;;;5012250;28;20030;-88
2023/04/10 13:07:30;;;;;;;0.20;0.20;;;;;;;;;;5011464;28;20038;-88
2023/04/10 13:09:56;;;;;;;0.30;0.30;;;;;;;;;;5010712;28;20124;-86
2023/04/10 13:12:22;;;;;;;0.20;0.20;;;;;;;;;;5010625;28;20091;-89
2023/04/10 13:14:48;;;;;;;0.52;0.52;;;;;;;;;;5010502;28;20112;-89
2023/04/10 13:17:13;;;;;;;0.15;0.15;;;;;;;;;;5009874;28;20455;-84
2023/04/10 13:19:38;;;;;;;0.20;0.20;;;;;;;;;;5010370;28;20521;-86
2023/04/10 13:22:04;;;;;;;0.20;0.20;;;;;;;;;;5010451;28;20042;-82
2023/04/10 13:24:30;;;;;;;0.20;0.20;;;;;;;;;;5009997;28;20033;-79
2023/04/10 13:26:58;;;;;;;0.20;0.20;;;;;;;;;;5010025;28;20470;-80
2023/04/10 13:29:24;;;;;;;0.40;0.40;;;;;;;;;;5009657;28;20428;-78
2023/04/10 13:31:49;;;;;;;0.20;0.20;;;;;;;;;;4992503;28;20038;-79
2023/04/10 13:34:15;;;;;;;0.20;0.20;;;;;;;;;;5009800;28;20480;-80
2023/04/10 13:36:41;;;;;;;0.20;0.20;;;;;;;;;;5010805;28;20076;-88
2023/04/10 13:39:06;;;;;;;0.65;0.65;;;;;;;;;;5009935;28;20042;-83
2023/04/10 13:41:31;;;;;;;0.20;0.20;;;;;;;;;;5010220;28;20069;-82
2023/04/10 13:43:57;;;;;;;0.20;0.20;;;;;;;;;;5009974;28;20041;-82
2023/04/10 13:46:22;;;;;;;0.20;0.20;;;;;;;;;;5009651;28;20049;-82
2023/04/10 13:48:48;;;;;;;0.20;0.20;;;;;;;;;;5009891;28;20030;-83
2023/04/10 13:51:13;;;;;;;0.25;0.25;;;;;;;;;;5009322;28;20060;-81
2023/04/10 13:53:39;;;;;;;0.20;0.20;;;;;;;;;;4992424;28;20044;-79
2023/04/10 13:56:04;;;;;;;0.22;0.22;;;;;;;;;;5009688;28;20489;-80
2023/04/10 13:58:32;;;;;;;0.20;0.20;;;;;;;;;;5009796;28;20030;-84
2023/04/10 14:00:58;;;;;;;0.35;0.35;;;;;;;;;;5009928;28;20026;-84
2023/04/10 14:03:23;;;;;;;0.90;0.90;;;;;;;;;;5009404;28;20041;-84
2023/04/10 14:05:49;;;;;;;0.20;0.20;;;;;;;;;;5013155;28;20401;-85
2023/04/10 14:08:14;;;;;;;0.47;0.47;;;;;;;;;;4996430;28;20026;-83
2023/04/10 14:10:40;;;;;;;0.20;0.20;;;;;;;;;;5013892;28;20037;-86
2023/04/10 14:13:06;;;;;;;0.30;0.30;;;;;;;;;;5013695;28;20036;-84
2023/04/10 14:15:32;;;;;;;0.20;0.20;;;;;;;;;;4995992;28;20046;-86
2023/04/10 14:17:57;;;;;;;0.20;0.20;;;;;;;;;;5013389;28;20038;-85
2023/04/10 14:20:22;;;;;;;0.25;0.25;;;;;;;;;;5013509;28;20067;-86
2023/04/10 14:22:48;;;;;;;0.20;0.20;;;;;;;;;;5013117;28;20362;-83
2023/04/10 14:25:16;;;;;;;0.30;0.30;;;;;;;;;;4995514;28;20053;-77
2023/04/10 14:27:42;;;;;;;0.20;0.20;;;;;;;;;;4995792;28;20535;-86
2023/04/10 14:30:08;;;;;;;0.20;0.20;;;;;;;;;;5013636;28;20065;-90
2023/04/10 14:32:34;;;;;;;0.32;0.32;;;;;;;;;;4995574;28;20492;-84
2023/04/10 14:34:59;;;;;;;0.20;0.20;;;;;;;;;;5013442;28;20030;-81
2023/04/10 14:37:24;;;;;;;0.30;0.30;;;;;;;;;;5013061;28;20038;-84
2023/04/10 14:39:50;;;;;;;0.22;0.22;;;;;;;;;;4995796;28;20539;-83
2023/04/10 14:42:15;;;;;;;0.50;0.50;;;;;;;;;;5012866;28;20168;-83
2023/04/10 14:44:41;;;;;;;0.20;0.20;;;;;;;;;;5013127;28;20076;-86
2023/04/10 14:47:06;;;;;;;0.20;0.20;;;;;;;;;;5012604;28;20067;-84
2023/04/10 14:49:32;;;;;;;0.20;0.20;;;;;;;;;;5012912;28;20143;-88
2023/04/10 14:51:57;;;;;;;0.20;0.20;;;;;;;;;;4995289;28;20037;-85
2023/04/10 14:54:23;;;;;;;0.30;0.30;;;;;;;;;;5012517;28;20062;-87
2023/04/10 14:56:48;;;;;;;0.35;0.35;;;;;;;;;;5012532;28;20092;-84
2023/04/10 14:59:15;;;;;;;0.20;0.20;;;;;;;;;;5012504;28;20112;-86